createdAt,value
2023-08-12T00:09:50.150Z,90.0
2023-08-12T00:22:50.183Z,89.0
2023-08-12T00:35:50.180Z,88.0
2023-08-12T00:48:50.175Z,91.0
2023-08-12T01:01:50.224Z,91.0
2023-08-12T01:14:50.242Z,92.0
2023-08-12T01:27:50.276Z,92.0
2023-08-12T01:40:50.273Z,92.0
2023-08-12T01:53:50.357Z,93.0
2023-08-12T02:06:50.401Z,93.0
2023-08-12T02:19:50.434Z,93.0
2023-08-12T02:32:50.428Z,93.0
2023-08-12T02:45:50.447Z,93.0
2023-08-12T02:58:50.430Z,93.0
2023-08-12T03:11:50.463Z,93.0
2023-08-12T03:24:50.456Z,93.0
2023-08-12T03:37:50.455Z,93.0
2023-08-12T03:50:50.442Z,93.0
2023-08-12T04:03:50.554Z,94.0
2023-08-12T04:16:50.550Z,94.0
2023-08-12T04:29:50.565Z,94.0
2023-08-12T04:42:50.547Z,94.0
2023-08-12T04:55:50.598Z,94.0
2023-08-12T05:08:50.603Z,93.0
2023-08-12T05:21:50.628Z,93.0
2023-08-12T05:34:50.627Z,92.0
2023-08-12T05:47:50.668Z,92.0
2023-08-12T06:00:50.653Z,92.0
2023-08-12T06:13:50.665Z,88.0
2023-08-12T06:26:50.702Z,85.0
2023-08-12T06:39:50.719Z,77.0
2023-08-12T06:52:50.704Z,68.0
2023-08-12T07:05:50.741Z,64.0
2023-08-12T07:18:50.813Z,60.0
2023-08-12T07:31:50.807Z,59.0
2023-08-12T07:44:50.858Z,62.0
2023-08-12T07:57:50.875Z,64.0
2023-08-12T08:10:50.883Z,61.0
2023-08-12T08:23:50.924Z,59.0
2023-08-12T08:36:52.652Z,56.0
2023-08-12T08:49:50.953Z,55.0
2023-08-12T09:02:51.001Z,53.0
2023-08-12T09:15:51.021Z,54.0
2023-08-12T09:28:50.960Z,54.0
2023-08-12T09:41:51.003Z,53.0
2023-08-12T09:54:50.987Z,53.0
2023-08-12T10:07:51.001Z,53.0
2023-08-12T10:20:50.992Z,51.0
2023-08-12T10:33:51.071Z,52.0
2023-08-12T10:46:51.093Z,52.0
2023-08-12T10:59:51.065Z,49.0
2023-08-12T11:12:51.045Z,51.0
2023-08-12T11:25:51.201Z,49.0
2023-08-12T11:38:51.122Z,48.0
2023-08-12T11:51:51.143Z,50.0
2023-08-12T12:04:51.166Z,53.0
2023-08-12T12:17:51.208Z,52.0
2023-08-12T12:30:51.194Z,49.0
2023-08-12T12:43:51.281Z,48.0
2023-08-12T12:56:51.278Z,48.0
2023-08-12T13:09:51.280Z,48.0
2023-08-12T13:22:51.298Z,48.0
2023-08-12T13:35:51.303Z,49.0
2023-08-12T13:48:51.321Z,45.0
2023-08-12T14:01:51.324Z,48.0
2023-08-12T14:14:51.350Z,50.0
2023-08-12T14:27:51.332Z,50.0
2023-08-12T14:40:51.462Z,53.0
2023-08-12T14:53:51.498Z,55.0
2023-08-12T15:06:51.487Z,53.0
2023-08-12T15:19:51.571Z,53.0
2023-08-12T15:32:51.588Z,48.0
2023-08-12T15:45:51.581Z,49.0
2023-08-12T15:58:51.590Z,51.0
2023-08-12T16:11:51.620Z,52.0
2023-08-12T16:24:51.619Z,52.0
2023-08-12T16:37:51.591Z,49.0
2023-08-12T16:50:51.603Z,51.0
2023-08-12T17:03:51.655Z,52.0
2023-08-12T17:16:51.689Z,62.0
2023-08-12T17:29:51.684Z,65.0
2023-08-12T17:42:51.708Z,69.0
2023-08-12T17:55:51.749Z,73.0
2023-08-12T18:08:51.752Z,74.0
2023-08-12T18:21:51.758Z,78.0
2023-08-12T18:34:51.797Z,79.0
2023-08-12T18:47:51.810Z,80.0
2023-08-12T19:00:51.804Z,80.0
2023-08-12T19:13:51.890Z,80.0
2023-08-12T19:26:51.915Z,81.0
2023-08-12T19:39:51.908Z,83.0
2023-08-12T19:52:51.909Z,85.0
2023-08-12T20:05:51.930Z,86.0
2023-08-12T20:18:51.929Z,86.0
2023-08-12T20:31:51.959Z,86.0
2023-08-12T20:44:51.965Z,87.0
2023-08-12T20:57:52.013Z,87.0
2023-08-12T21:10:52.107Z,88.0
2023-08-12T21:23:52.115Z,88.0
2023-08-12T21:36:52.126Z,89.0
2023-08-12T21:49:52.130Z,90.0
2023-08-12T22:02:52.185Z,90.0
2023-08-12T22:15:52.197Z,90.0
2023-08-12T22:28:52.218Z,91.0
2023-08-12T22:41:52.305Z,91.0
2023-08-12T22:54:52.284Z,91.0
2023-08-12T23:07:52.301Z,91.0
2023-08-12T23:20:52.318Z,90.0
2023-08-12T23:33:52.335Z,89.0
2023-08-12T23:46:52.361Z,88.0
2023-08-12T23:59:52.376Z,88.0
